Stations météo

Publicité
Mont Aigoual, France (7560): Température de l'air & dewpoint: 14.02.2018 01:00:00 - 20.02.2018 01:00:00 (CET)Mont Aigoual, France (7560): Vitesse du vent & gusts: 14.02.2018 01:00:00 - 20.02.2018 01:00:00 (CET)Mont Aigoual, France (7560): Direction du vent: 14.02.2018 01:00:00 - 20.02.2018 01:00:00 (CET)Mont Aigoual, France (7560): visibility: 14.02.2018 01:00:00 - 20.02.2018 01:00:00 (CET)Mont Aigoual, France (7560): Quantités de précipitations: 14.02.2018 01:00:00 - 20.02.2018 01:00:00 (CET)
Date & Time tt [°C] td [°C] ff [km/h] ff [knt] fx [km/h] fx [knt] dd vv [km] rr [mm]
20.02.2018 01:00:00 - - - - - - - - -
20.02.2018 00:00:00 -3,0 -3,3 56 30 85 46 NNW 0,2 0,0
19.02.2018 23:00:00 -2,6 -4,2 66 36 89 48 N 20 0,0
19.02.2018 22:00:00 -2,3 -5,4 57 31 86 47 NNW 20 0,0
19.02.2018 21:00:00 -1,7 -6,6 63 34 83 45 NNW 20 0,0
19.02.2018 20:00:00 -1,9 -6,1 54 29 71 38 NNW 20 0,0
19.02.2018 19:00:00 -1,1 -6,1 44 24 56 31 N 20 0,0
19.02.2018 18:00:00 -1,0 -6,0 42 23 54 29 NNW 20 0,0
19.02.2018 17:00:00 0,3 -11,1 34 18 49 26 NNW 20 0,0
19.02.2018 16:00:00 0,4 -11,7 21 12 42 23 N 20 0,0
19.02.2018 15:00:00 0,4 -12,6 23 12 35 19 N 20 0,0
19.02.2018 14:00:00 0,8 -17,0 24 13 40 22 N 20 0,2
19.02.2018 13:00:00 1,1 -16,8 18 10 26 14 N 20 0,2
19.02.2018 12:00:00 1,1 -19,4 11 6 18 10 NE 20 0,0
19.02.2018 11:00:00 0,3 -19,5 9 5 22 12 N 20 0,2
19.02.2018 10:00:00 -0,3 -20,6 11 6 26 14 N 20 0,8
19.02.2018 09:00:00 -1,2 -22,6 22 12 26 14 N 20 0,0
19.02.2018 08:00:00 -1,4 -22,7 20 11 25 13 N 20 0,0
19.02.2018 07:00:00 -2,1 -21,0 23 13 30 16 N 20 0,0
19.02.2018 06:00:00 -2,4 -18,5 23 12 31 17 N 20 0,0
19.02.2018 05:00:00 -2,6 -17,4 24 13 31 17 N 20 0,0
19.02.2018 04:00:00 -2,8 -14,9 22 12 36 19 N 20 0,0
19.02.2018 03:00:00 -3,1 -13,1 28 15 37 20 NNE 20 0,0
19.02.2018 02:00:00 -3,6 -11,3 29 16 37 20 NNE 20 0,0
19.02.2018 01:00:00 -4,2 -9,6 22 12 37 20 NNE 20 0,0
19.02.2018 00:00:00 -4,2 -9,2 35 19 54 29 N 20 0,0
18.02.2018 23:00:00 -4,9 -8,0 41 22 60 32 N 20 0,0
18.02.2018 22:00:00 -4,9 -7,3 48 26 67 36 N 20 0,0
18.02.2018 21:00:00 -4,8 -6,3 52 28 88 48 N 13 0,0
18.02.2018 20:00:00 -4,4 -5,4 69 37 91 49 NNW 20 0,0
18.02.2018 19:00:00 -3,9 -4,7 64 35 91 49 NNW 17 0,0
18.02.2018 18:00:00 -3,3 -3,8 64 34 93 50 NNW 20 0,0
18.02.2018 17:00:00 -3,2 -3,7 64 35 90 49 NNW 20 0,0
18.02.2018 16:00:00 -3,0 -3,5 59 32 85 46 NNW 20 0,0
18.02.2018 15:00:00 -3,2 -3,6 64 34 88 47 NNW 19 0,0
18.02.2018 14:00:00 -2,9 -3,2 64 34 90 48 NNW 18 0,0
18.02.2018 13:00:00 -3,4 -3,8 66 36 111 60 NNW 16 0,0
18.02.2018 12:00:00 -3,5 -3,9 64 35 136 74 N 0,3 0,0
18.02.2018 11:00:00 -3,9 -4,3 68 37 111 60 N 0,2 0,0
18.02.2018 10:00:00 -4,2 -4,6 75 40 100 54 N 0,1 0,0
18.02.2018 09:00:00 -4,2 -4,6 70 38 102 55 N 0,2 0,0
18.02.2018 08:00:00 -4,2 -4,6 77 42 - - N 0,1 0,0
18.02.2018 07:00:00 -4,1 -4,5 60 33 120 65 N 0,3 0,0
18.02.2018 06:00:00 -3,8 -4,2 89 48 119 64 N 0,2 0,0
18.02.2018 05:00:00 -3,8 -4,2 91 49 123 66 N 0,3 0,0
18.02.2018 04:00:00 -3,8 -4,2 93 50 112 60 NNW 0,7 0,0
18.02.2018 03:00:00 -3,5 -3,9 72 39 120 65 N 0,2 0,0
18.02.2018 02:00:00 -3,2 -3,5 66 35 103 55 N 0,2 0,0
18.02.2018 01:00:00 -2,5 -2,8 56 31 84 45 N 0,1 0,0
18.02.2018 00:00:00 -1,8 -1,9 50 27 100 54 N 0,1 0,0
17.02.2018 23:00:00 -1,5 -1,6 52 28 92 50 NNW 0,3 0,4
17.02.2018 22:00:00 -1,4 -1,5 64 34 101 55 NNW 0,1 0,2
17.02.2018 21:00:00 -1,3 -1,4 56 30 117 63 NNW 0,1 0,6
17.02.2018 20:00:00 -1,3 -1,4 57 31 95 51 NNW 0,1 0,0
17.02.2018 19:00:00 -1,5 -1,6 51 28 92 50 NNW 0,1 0,0
17.02.2018 18:00:00 -1,4 -1,4 54 29 109 59 NW 0,1 0,0
17.02.2018 17:00:00 -0,9 -0,9 80 43 111 60 NW 0,2 0,0
17.02.2018 16:00:00 -1,2 -1,2 76 41 116 63 NW 0,2 0,0
17.02.2018 15:00:00 -1,0 -1,0 78 42 103 56 NW 0,1 0,0
17.02.2018 14:00:00 -0,9 -0,9 75 40 111 60 NW 0,1 0,0
17.02.2018 13:00:00 -0,1 -0,1 80 43 104 56 NW 0,3 0,4
17.02.2018 12:00:00 1,6 1,6 59 32 81 44 NW 0,1 0,6
17.02.2018 11:00:00 2,6 2,6 46 25 69 38 WNW 0,1 0,0
17.02.2018 10:00:00 2,8 2,8 44 24 61 33 WNW 0,2 1,2
17.02.2018 09:00:00 3,1 3,1 34 18 55 30 W 0,2 2,6
17.02.2018 08:00:00 3,5 3,5 23 13 45 25 W 0,1 0,0
17.02.2018 07:00:00 4,2 3,9 14 7 25 13 WSW 19 0,0
17.02.2018 06:00:00 3,8 3,8 15 8 27 15 SW 14 0,0
17.02.2018 05:00:00 3,5 3,5 18 10 29 16 SSW 0,1 0,0
17.02.2018 04:00:00 3,5 3,5 24 13 34 19 S 0,1 0,0
17.02.2018 03:00:00 3,8 3,8 29 16 40 21 S 0,1 0,0
17.02.2018 02:00:00 4,0 4,0 30 16 41 22 S 0,1 0,0
17.02.2018 01:00:00 4,0 3,9 29 16 43 23 S 0,2 0,0
17.02.2018 00:00:00 4,4 4,1 32 18 47 25 S 0,5 0,0
16.02.2018 23:00:00 4,8 4,2 34 18 46 25 S 20 0,0
16.02.2018 22:00:00 4,3 3,3 28 15 32 18 S 20 0,0
16.02.2018 21:00:00 4,4 3,7 23 13 29 16 S 20 0,0
16.02.2018 20:00:00 4,9 4,2 19 10 22 12 S 20 0,0
16.02.2018 19:00:00 5,8 5,2 9 5 15 8 S 20 0,0
16.02.2018 18:00:00 6,1 4,7 12 6 16 9 WSW 20 0,0
16.02.2018 17:00:00 6,9 5,2 8 4 19 10 SW 20 0,0
16.02.2018 16:00:00 6,9 5,4 9 5 22 12 SSW 20 0,0
16.02.2018 15:00:00 5,9 5,0 11 6 22 12 SSW 20 0,0
16.02.2018 14:00:00 5,7 5,0 12 7 19 10 SSW 20 0,0
16.02.2018 13:00:00 5,3 4,6 8 4 13 7 S 20 0,0
16.02.2018 12:00:00 5,1 4,4 12 7 25 13 NW 20 0,0
16.02.2018 11:00:00 4,7 4,1 22 12 41 22 NW 20 0,0
16.02.2018 10:00:00 4,2 4,1 34 18 49 26 NNW 20 0,0
16.02.2018 09:00:00 4,1 4,1 32 17 46 25 NNW 7 0,0
16.02.2018 08:00:00 4,3 4,3 36 19 49 26 NNW 0,2 0,2
16.02.2018 07:00:00 4,6 4,6 34 19 43 23 NNW 0,1 0,0
16.02.2018 06:00:00 4,4 4,4 29 16 49 26 NW 0,1 0,0
16.02.2018 05:00:00 4,4 4,4 34 19 49 26 NW 0,1 0,0
16.02.2018 04:00:00 4,6 4,6 36 19 45 24 NNW 0,1 0,0
16.02.2018 03:00:00 4,5 4,5 39 21 54 29 NW 0,2 0,0
16.02.2018 02:00:00 4,6 4,6 37 20 55 30 NW 20 0,0
16.02.2018 01:00:00 4,5 4,5 39 21 59 32 NNW 20 0,0
16.02.2018 00:00:00 4,3 4,3 40 22 63 34 NW 0,2 0,0
15.02.2018 23:00:00 4,3 4,3 42 23 58 31 NW 0,1 0,0
15.02.2018 22:00:00 4,3 4,3 42 23 66 35 NW 0,1 0,0
15.02.2018 21:00:00 4,0 4,0 37 20 61 33 NNW 0,1 0,0
15.02.2018 20:00:00 4,1 4,1 40 22 67 36 NNW 0,1 0,2
15.02.2018 19:00:00 3,6 3,6 35 19 73 39 NNW 0,1 0,0
15.02.2018 18:00:00 3,8 3,8 44 24 77 42 NNW 0,1 0,0
15.02.2018 17:00:00 3,8 3,8 48 26 86 46 NNW 0,1 0,0
15.02.2018 16:00:00 3,7 3,7 47 25 94 51 NNW 0,1 0,0
15.02.2018 15:00:00 3,5 3,5 56 30 90 48 NNW 0,1 0,2
15.02.2018 14:00:00 3,4 3,4 53 29 95 51 NNW 0,1 0,0
15.02.2018 13:00:00 3,0 3,0 64 35 101 54 NNW 0,1 0,0
15.02.2018 12:00:00 3,0 3,0 63 34 95 51 NW 0,1 0,0
15.02.2018 11:00:00 2,7 2,7 57 31 86 46 NNW 0,1 0,2
15.02.2018 10:00:00 2,6 2,6 52 28 78 42 NNW 0,1 0,2
15.02.2018 09:00:00 2,6 2,6 53 28 93 50 NW 0,1 0,2
15.02.2018 08:00:00 2,8 2,8 64 35 89 48 WNW 0,1 0,0
15.02.2018 07:00:00 2,3 2,3 51 28 72 39 NW 0,1 0,4
15.02.2018 06:00:00 1,9 1,9 43 23 73 39 NW 0,1 0,4
15.02.2018 05:00:00 1,8 1,8 46 25 69 37 NW 0,1 0,4
15.02.2018 04:00:00 1,7 1,7 42 23 65 35 NW 0,1 0,2
15.02.2018 03:00:00 1,6 1,6 36 20 63 34 NW 0,1 1,0
15.02.2018 02:00:00 1,6 1,6 39 21 56 30 WNW 0,1 0,8
15.02.2018 01:00:00 0,9 0,9 40 22 56 30 W 0,2 0,6
15.02.2018 00:00:00 0,6 0,6 32 17 51 28 W 0,3 0,4
14.02.2018 23:00:00 0,4 0,4 28 15 49 26 W 0,2 0,0
14.02.2018 22:00:00 0,1 0,1 37 20 52 28 WNW 0,2 0,4
14.02.2018 21:00:00 -0,8 -0,9 37 20 49 27 NW 0,2 0,2
14.02.2018 20:00:00 -1,2 -1,3 36 19 46 25 NW 0,2 0,2
14.02.2018 19:00:00 -1,7 -1,8 29 15 38 20 WNW 0,3 0,0
14.02.2018 18:00:00 -3,8 -4,8 21 11 29 16 WNW 5 0,0
14.02.2018 17:00:00 -4,6 -7,7 16 8 26 14 WSW 15 0,0
14.02.2018 16:00:00 -4,5 -6,8 7 4 13 7 SSW 15 0,0
14.02.2018 15:00:00 -4,7 -6,1 5 3 14 8 SSW 15 0,2
14.02.2018 14:00:00 -5,8 -7,2 6 3 14 8 WSW 13 0,0
14.02.2018 13:00:00 -6,4 -9,3 10 5 26 14 N 15 0,2
14.02.2018 12:00:00 -7,1 -8,0 13 7 40 22 N 14 0,0
14.02.2018 11:00:00 -7,5 -8,3 37 20 50 27 NW 14 0,0
14.02.2018 10:00:00 -7,6 -8,4 45 24 69 37 NW 13 0,0
14.02.2018 09:00:00 -7,7 -8,5 58 31 92 50 NNW 12 0,0
14.02.2018 08:00:00 -7,6 -8,4 72 39 170 92 NNW 0,6 0,0
14.02.2018 07:00:00 -7,1 -7,9 86 47 170 92 NNW 0,2 0,0
14.02.2018 06:00:00 -6,5 -7,2 70 38 107 58 NW 0,1 0,2
14.02.2018 05:00:00 -6,4 -7,1 50 27 108 58 NNW 0,1 0,0
14.02.2018 04:00:00 -6,4 -7,1 68 37 98 53 NNW 0,2 0,0
14.02.2018 03:00:00 -6,1 -6,8 46 25 102 55 NNW 0,1 0,0
14.02.2018 02:00:00 -6,1 -6,8 65 35 99 54 NNW 0,2 0,0
14.02.2018 01:00:00 -5,9 -6,6 52 28 104 56 NNW 0,1 0,4

tt = Température de l'air
td = dewpoint
ff = Vitesse du vent
fx = gusts
dd = Direction du vent
vv = visibility
rr = Quantités de précipitations

stations d'obs. à proximité